createdAt,value
2019-02-02T00:01:56.092Z,94834.16
2019-02-02T00:05:03.443Z,94837.94
2019-02-02T00:08:11.034Z,94845.25
2019-02-02T00:11:17.919Z,94833.84
2019-02-02T00:14:24.867Z,94832.73
2019-02-02T00:17:33.891Z,94825.52
2019-02-02T00:20:40.814Z,94833.77
2019-02-02T00:23:47.694Z,94826.49
2019-02-02T00:26:54.788Z,94825.50
2019-02-02T00:30:01.806Z,94819.54
2019-02-02T00:33:11.618Z,94817.08
2019-02-02T00:36:19.718Z,94821.09
2019-02-02T00:39:26.751Z,94821.29
2019-02-02T00:42:35.285Z,94828.50
2019-02-02T00:45:42.410Z,94821.85
2019-02-02T00:48:49.286Z,94825.52
2019-02-02T00:51:57.342Z,94841.52
2019-02-02T00:55:05.989Z,94844.87
2019-02-02T00:58:12.911Z,94842.83
2019-02-02T01:01:19.817Z,94840.50
2019-02-02T01:04:27.720Z,94840.35
2019-02-02T01:07:34.779Z,94859.14
2019-02-02T01:10:43.831Z,94860.05
2019-02-02T01:13:51.506Z,94858.97
2019-02-02T01:16:58.491Z,94851.12
2019-02-02T01:20:10.975Z,94837.03
2019-02-02T01:23:20.403Z,94831.25
2019-02-02T01:26:27.885Z,94824.49
2019-02-02T01:29:34.924Z,94829.98
2019-02-02T01:32:41.805Z,94831.00
2019-02-02T01:35:50.321Z,94839.17
2019-02-02T01:38:57.222Z,94825.50
2019-02-02T01:42:04.489Z,94814.26
2019-02-02T01:45:16.071Z,94820.02
2019-02-02T01:48:24.584Z,94819.49
2019-02-02T01:51:33.100Z,94820.27
2019-02-02T01:54:42.060Z,94807.09
2019-02-02T01:57:50.532Z,94812.11
2019-02-02T02:00:57.563Z,94816.00
2019-02-02T02:04:04.948Z,94820.45
2019-02-02T02:07:12.916Z,94836.47
2019-02-02T02:10:20.288Z,94850.22
2019-02-02T02:13:27.414Z,94862.52
2019-02-02T02:16:34.389Z,94842.83
2019-02-02T02:19:42.101Z,94846.92
2019-02-02T02:22:50.082Z,94844.84
2019-02-02T02:25:57.008Z,94848.03
2019-02-02T02:29:04.210Z,94855.81
2019-02-02T02:32:11.666Z,94844.28
2019-02-02T02:35:19.403Z,94838.30
2019-02-02T02:38:26.440Z,94833.22
2019-02-02T02:41:33.508Z,94825.84
2019-02-02T02:44:40.442Z,94828.27
2019-02-02T02:47:49.795Z,94809.44
2019-02-02T02:50:56.838Z,94825.41
2019-02-02T02:54:03.798Z,94829.32
2019-02-02T02:57:13.126Z,94824.03
2019-02-02T03:00:25.793Z,94830.56
2019-02-02T03:03:32.766Z,94841.32
2019-02-02T03:06:43.731Z,94847.99
2019-02-02T03:09:53.585Z,94846.02
2019-02-02T03:13:00.723Z,94822.05
2019-02-02T03:16:07.662Z,94819.31
2019-02-02T03:19:14.681Z,94840.17
2019-02-02T03:22:21.780Z,94875.69
2019-02-02T03:25:28.869Z,94872.54
2019-02-02T03:28:36.041Z,94853.50
2019-02-02T03:31:42.980Z,94831.11
2019-02-02T03:34:49.973Z,94824.69
2019-02-02T03:37:56.923Z,94832.88
2019-02-02T03:41:03.939Z,94842.13
2019-02-02T03:44:10.831Z,94828.50
2019-02-02T03:47:18.617Z,94814.30
2019-02-02T03:50:25.497Z,94815.44
2019-02-02T03:53:32.585Z,94823.98
2019-02-02T03:56:39.802Z,94835.42
2019-02-02T03:59:47.897Z,94844.94
2019-02-02T04:02:54.850Z,94849.43
2019-02-02T04:06:01.771Z,94842.83
2019-02-02T04:09:09.698Z,94839.41
2019-02-02T04:12:16.660Z,94835.38
2019-02-02T04:15:24.410Z,94842.89
2019-02-02T04:18:31.411Z,94859.20
2019-02-02T04:21:38.312Z,94858.42
2019-02-02T04:24:45.236Z,94859.62
2019-02-02T04:27:54.759Z,94858.56
2019-02-02T04:31:01.680Z,94871.02
2019-02-02T04:34:08.717Z,94876.01
2019-02-02T04:37:15.900Z,94870.31
2019-02-02T04:40:22.777Z,94859.88
2019-02-02T04:43:30.069Z,94881.65
2019-02-02T04:46:39.703Z,94882.91
2019-02-02T04:49:46.637Z,94882.77
2019-02-02T04:52:53.514Z,94893.82
2019-02-02T04:56:01.965Z,94901.27
2019-02-02T04:59:08.884Z,94909.14
2019-02-02T05:02:17.488Z,94909.80
2019-02-02T05:05:24.613Z,94888.86
2019-02-02T05:08:31.985Z,94895.67
2019-02-02T05:11:38.939Z,94883.02
2019-02-02T05:14:46.155Z,94890.04
2019-02-02T05:17:53.061Z,94885.09
2019-02-02T05:21:00.083Z,94887.89
2019-02-02T05:24:06.990Z,94880.67
2019-02-02T05:27:14.184Z,94879.36
2019-02-02T05:30:28.078Z,94883.31
2019-02-02T05:33:35.340Z,94874.45
2019-02-02T05:36:42.244Z,94872.48
2019-02-02T05:39:50.129Z,94880.30
2019-02-02T05:42:57.013Z,94891.04
2019-02-02T05:46:03.947Z,94890.52
2019-02-02T05:49:10.943Z,94885.34
2019-02-02T05:52:17.960Z,94899.29
2019-02-02T05:55:24.875Z,94882.67
2019-02-02T05:58:32.226Z,94895.73
2019-02-02T06:01:39.207Z,94903.18
2019-02-02T06:04:47.506Z,94895.47
2019-02-02T06:07:54.402Z,94900.55
2019-02-02T06:11:02.648Z,94890.28
2019-02-02T06:14:09.723Z,94902.81
2019-02-02T06:17:18.136Z,94901.29
2019-02-02T06:20:25.136Z,94914.03
2019-02-02T06:23:35.406Z,94918.91
2019-02-02T06:26:42.403Z,94914.22
2019-02-02T06:29:49.346Z,94933.88
2019-02-02T06:32:56.235Z,94947.58
2019-02-02T06:36:03.611Z,94949.31
2019-02-02T06:39:10.784Z,94949.27
2019-02-02T06:42:17.744Z,94948.33
2019-02-02T06:45:34.357Z,94954.05
2019-02-02T06:48:41.485Z,94955.73
2019-02-02T06:51:48.469Z,94943.14
2019-02-02T06:54:55.409Z,94959.24
2019-02-02T06:58:02.312Z,94956.88
2019-02-02T07:01:09.221Z,94969.00
2019-02-02T07:04:16.470Z,94989.80
2019-02-02T07:07:24.660Z,94985.33
2019-02-02T07:10:31.653Z,94991.06
2019-02-02T07:13:38.691Z,95016.69
2019-02-02T07:16:45.624Z,95024.87
2019-02-02T07:19:52.571Z,95001.73
2019-02-02T07:22:59.555Z,95000.31
2019-02-02T07:26:06.484Z,95010.84
2019-02-02T07:29:13.615Z,95005.08
2019-02-02T07:32:20.536Z,95002.30
2019-02-02T07:35:27.522Z,94992.43
2019-02-02T07:38:34.534Z,94992.88
2019-02-02T07:41:41.715Z,94985.00
2019-02-02T07:44:48.717Z,94997.47
2019-02-02T07:47:56.089Z,95020.55
2019-02-02T07:51:04.670Z,95034.47
2019-02-02T07:54:13.074Z,95047.44
2019-02-02T07:57:23.093Z,95058.84
2019-02-02T08:00:40.816Z,95061.73
2019-02-02T08:03:41.697Z,95078.27
2019-02-02T08:06:48.598Z,95082.58
2019-02-02T08:09:56.027Z,95085.47
2019-02-02T08:13:03.094Z,95101.85
2019-02-02T08:16:12.179Z,95090.14
2019-02-02T08:19:19.402Z,95096.02
2019-02-02T08:22:26.338Z,95088.34
2019-02-02T08:25:35.827Z,95090.47
2019-02-02T08:28:44.223Z,95088.13
2019-02-02T08:31:52.874Z,95096.17
2019-02-02T08:35:01.626Z,95104.69
2019-02-02T08:38:10.365Z,95112.46
2019-02-02T08:41:20.140Z,95105.14
2019-02-02T08:44:29.578Z,95088.51
2019-02-02T08:47:36.851Z,95087.13
2019-02-02T08:50:43.734Z,95089.12
2019-02-02T08:53:50.670Z,95087.73
2019-02-02T08:56:57.722Z,95104.73
2019-02-02T09:00:05.674Z,95096.18
2019-02-02T09:03:12.599Z,95117.56
2019-02-02T09:06:20.368Z,95111.45
2019-02-02T09:09:27.273Z,95116.36
2019-02-02T09:12:40.157Z,95121.19
2019-02-02T09:15:50.311Z,95127.55
2019-02-02T09:18:58.683Z,95125.07
2019-02-02T09:22:08.796Z,95110.53
2019-02-02T09:25:17.326Z,95104.84
2019-02-02T09:28:24.207Z,95113.67
2019-02-02T09:31:35.336Z,95113.86
2019-02-02T09:34:59.371Z,95105.20
2019-02-02T09:38:11.950Z,95113.41
2019-02-02T09:41:19.301Z,95122.28
2019-02-02T09:44:26.213Z,95128.11
2019-02-02T09:47:33.195Z,95126.73
2019-02-02T09:50:40.244Z,95135.36
2019-02-02T09:53:47.146Z,95125.53
2019-02-02T09:56:54.187Z,95123.50
2019-02-02T10:00:01.572Z,95120.64
2019-02-02T10:03:15.848Z,95112.53
2019-02-02T10:06:24.422Z,95113.91
2019-02-02T10:09:34.487Z,95123.00
2019-02-02T10:12:41.743Z,95139.46
2019-02-02T10:15:48.682Z,95154.65
2019-02-02T10:19:02.363Z,95149.88
2019-02-02T10:22:13.728Z,95146.69
2019-02-02T10:25:23.870Z,95155.80
2019-02-02T10:28:31.122Z,95160.20
2019-02-02T10:31:42.107Z,95161.98
2019-02-02T10:34:49.605Z,95166.55
2019-02-02T10:37:56.872Z,95151.63
2019-02-02T10:41:05.196Z,95152.66
2019-02-02T10:44:12.193Z,95149.05
2019-02-02T10:47:19.308Z,95154.55
2019-02-02T10:50:26.331Z,95157.27
2019-02-02T10:53:33.272Z,95158.80
2019-02-02T10:56:42.470Z,95174.28
2019-02-02T10:59:51.384Z,95172.84
2019-02-02T11:02:58.564Z,95188.89
2019-02-02T11:06:05.938Z,95200.73
2019-02-02T11:09:13.119Z,95205.78
2019-02-02T11:12:20.107Z,95199.37
2019-02-02T11:15:27.891Z,95208.14
2019-02-02T11:18:35.023Z,95207.71
2019-02-02T11:21:41.978Z,95206.00
2019-02-02T11:24:49.525Z,95190.54
2019-02-02T11:27:56.794Z,95192.13
2019-02-02T11:31:03.854Z,95201.61
2019-02-02T11:34:10.893Z,95198.34
2019-02-02T11:37:17.917Z,95202.22
2019-02-02T11:40:28.369Z,95202.16
2019-02-02T11:43:37.662Z,95202.97
2019-02-02T11:46:44.845Z,95212.20
2019-02-02T11:49:52.873Z,95213.67
2019-02-02T11:52:59.975Z,95229.11
2019-02-02T11:56:07.132Z,95227.14
2019-02-02T11:59:15.289Z,95228.56
2019-02-02T12:02:23.752Z,95232.13
2019-02-02T12:05:30.953Z,95234.70
2019-02-02T12:08:39.540Z,95235.25
2019-02-02T12:11:46.498Z,95235.91
2019-02-02T12:14:53.530Z,95238.78
2019-02-02T12:18:02.591Z,95244.98
2019-02-02T12:21:09.584Z,95253.77
2019-02-02T12:24:17.672Z,95255.94
2019-02-02T12:27:24.650Z,95258.42
2019-02-02T12:30:36.485Z,95267.03
2019-02-02T12:33:46.120Z,95275.87
2019-02-02T12:36:53.144Z,95272.97
2019-02-02T12:40:00.229Z,95275.28
2019-02-02T12:43:07.283Z,95270.83
2019-02-02T12:46:14.253Z,95266.77
2019-02-02T12:49:21.945Z,95263.20
2019-02-02T12:52:29.060Z,95279.50
2019-02-02T12:55:36.048Z,95287.59
2019-02-02T12:58:43.402Z,95288.17
2019-02-02T13:01:50.339Z,95305.91
2019-02-02T13:04:57.531Z,95307.47
2019-02-02T13:08:05.308Z,95306.41
2019-02-02T13:11:13.016Z,95318.42
2019-02-02T13:14:20.379Z,95314.27
2019-02-02T13:17:28.940Z,95320.47
2019-02-02T13:20:36.455Z,95326.05
2019-02-02T13:23:43.562Z,95318.10
2019-02-02T13:26:50.608Z,95325.58
2019-02-02T13:29:57.648Z,95317.80
2019-02-02T13:33:05.114Z,95311.91
2019-02-02T13:36:12.147Z,95314.91
2019-02-02T13:39:19.445Z,95315.47
2019-02-02T13:42:26.755Z,95325.58
2019-02-02T13:45:33.748Z,95322.78
2019-02-02T13:48:40.947Z,95328.59
2019-02-02T13:51:47.978Z,95345.69
2019-02-02T13:54:55.006Z,95337.64
2019-02-02T13:58:02.036Z,95339.74
2019-02-02T14:01:09.217Z,95344.31
2019-02-02T14:04:16.322Z,95356.38
2019-02-02T14:07:23.540Z,95353.37
2019-02-02T14:10:32.828Z,95363.95
2019-02-02T14:13:39.932Z,95374.95
2019-02-02T14:16:47.931Z,95385.95
2019-02-02T14:19:55.032Z,95375.03
2019-02-02T14:23:02.402Z,95379.73
2019-02-02T14:26:09.507Z,95377.00
2019-02-02T14:29:16.605Z,95393.42
2019-02-02T14:32:26.060Z,95405.28
2019-02-02T14:35:32.991Z,95416.17
2019-02-02T14:38:40.171Z,95420.95
2019-02-02T14:41:49.084Z,95433.75
2019-02-02T14:44:56.173Z,95449.55
2019-02-02T14:48:03.196Z,95457.97
2019-02-02T14:51:11.562Z,95460.59
2019-02-02T14:54:18.690Z,95471.87
2019-02-02T14:57:27.063Z,95471.03
2019-02-02T15:00:34.193Z,95473.13
2019-02-02T15:03:41.372Z,95472.75
2019-02-02T15:06:48.478Z,95474.98
2019-02-02T15:09:56.520Z,95470.18
2019-02-02T15:13:03.672Z,95468.53
2019-02-02T15:16:11.827Z,95483.75
2019-02-02T15:19:18.788Z,95486.38
2019-02-02T15:22:33.059Z,95485.90
2019-02-02T15:25:41.006Z,95488.75
2019-02-02T15:28:47.955Z,95481.86
2019-02-02T15:31:54.930Z,95483.12
2019-02-02T15:35:05.910Z,95480.13
2019-02-02T15:38:14.097Z,95500.80
2019-02-02T15:41:24.922Z,95507.17
2019-02-02T15:44:32.527Z,95521.88
2019-02-02T15:47:39.586Z,95524.02
2019-02-02T15:50:46.530Z,95521.07
2019-02-02T15:53:53.566Z,95527.48
2019-02-02T15:57:00.546Z,95534.66
2019-02-02T16:00:15.470Z,95541.38
2019-02-02T16:03:24.470Z,95552.34
2019-02-02T16:06:31.777Z,95563.76
2019-02-02T16:09:38.679Z,95572.27
2019-02-02T16:12:47.394Z,95573.72
2019-02-02T16:15:54.450Z,95570.77
2019-02-02T16:19:01.505Z,95570.72
2019-02-02T16:22:08.464Z,95573.63
2019-02-02T16:25:15.863Z,95579.33
2019-02-02T16:28:24.133Z,95575.97
2019-02-02T16:31:33.684Z,95585.59
2019-02-02T16:34:40.641Z,95589.77
2019-02-02T16:37:47.697Z,95592.48
2019-02-02T16:40:54.704Z,95605.95
2019-02-02T16:44:01.705Z,95625.33
2019-02-02T16:47:08.663Z,95619.05
2019-02-02T16:50:19.364Z,95627.19
2019-02-02T16:53:34.713Z,95631.78
2019-02-02T16:56:41.722Z,95632.62
2019-02-02T16:59:48.679Z,95635.05
2019-02-02T17:02:55.933Z,95641.79
2019-02-02T17:06:03.069Z,95654.01
2019-02-02T17:09:13.736Z,95651.44
2019-02-02T17:12:19.501Z,95657.33
2019-02-02T17:15:26.595Z,95665.80
2019-02-02T17:18:36.595Z,95665.98
2019-02-02T17:21:43.659Z,95664.95
2019-02-02T17:24:50.912Z,95676.29
2019-02-02T17:27:58.103Z,95681.86
2019-02-02T17:31:07.226Z,95686.09
2019-02-02T17:34:14.428Z,95695.44
2019-02-02T17:37:21.421Z,95696.05
2019-02-02T17:40:29.440Z,95703.81
2019-02-02T17:43:36.523Z,95705.51
2019-02-02T17:46:43.590Z,95702.30
2019-02-02T17:49:50.698Z,95710.66
2019-02-02T17:52:57.963Z,95711.58
2019-02-02T17:56:05.066Z,95717.04
2019-02-02T17:59:14.002Z,95729.47
2019-02-02T18:02:21.088Z,95740.66
2019-02-02T18:05:28.276Z,95744.70
2019-02-02T18:08:35.285Z,95741.30
2019-02-02T18:11:46.303Z,95752.63
2019-02-02T18:14:55.723Z,95763.81
2019-02-02T18:18:03.629Z,95764.27
2019-02-02T18:21:11.802Z,95765.48
2019-02-02T18:24:18.847Z,95760.14
2019-02-02T18:27:27.027Z,95779.96
2019-02-02T18:30:34.147Z,95772.78
2019-02-02T18:33:41.802Z,95777.36
2019-02-02T18:36:51.731Z,95785.02
2019-02-02T18:39:58.967Z,95787.08
2019-02-02T18:43:08.156Z,95781.59
2019-02-02T18:46:15.587Z,95789.13
2019-02-02T18:49:22.636Z,95792.19
2019-02-02T18:52:29.832Z,95796.22
2019-02-02T18:55:47.127Z,95804.93
2019-02-02T18:58:54.070Z,95804.30
2019-02-02T19:02:01.131Z,95807.69
2019-02-02T19:05:08.933Z,95816.39
2019-02-02T19:08:35.155Z,95820.56
2019-02-02T19:11:45.149Z,95817.75
2019-02-02T19:14:52.299Z,95812.84
2019-02-02T19:17:59.269Z,95810.23
2019-02-02T19:21:06.414Z,95810.94
2019-02-02T19:24:13.423Z,95808.45
2019-02-02T19:27:20.564Z,95816.15
2019-02-02T19:30:30.458Z,95810.46
2019-02-02T19:33:38.527Z,95813.19
2019-02-02T19:36:46.907Z,95811.60
2019-02-02T19:39:53.910Z,95813.67
2019-02-02T19:43:01.005Z,95814.98
2019-02-02T19:46:08.000Z,95819.39
2019-02-02T19:49:14.943Z,95828.28
2019-02-02T19:52:22.913Z,95837.52
2019-02-02T19:55:29.984Z,95848.91
2019-02-02T19:58:37.197Z,95850.64
2019-02-02T20:01:44.189Z,95857.22
2019-02-02T20:04:52.336Z,95868.64
2019-02-02T20:08:00.568Z,95870.78
2019-02-02T20:11:08.963Z,95882.38
2019-02-02T20:14:17.367Z,95889.08
2019-02-02T20:17:25.844Z,95891.17
2019-02-02T20:20:34.382Z,95896.02
2019-02-02T20:23:42.529Z,95909.17
2019-02-02T20:26:52.909Z,95907.09
2019-02-02T20:30:00.813Z,95908.95
2019-02-02T20:33:08.783Z,95905.83
2019-02-02T20:36:16.712Z,95909.17
2019-02-02T20:39:25.089Z,95916.19
2019-02-02T20:42:35.801Z,95934.19
2019-02-02T20:45:43.996Z,95942.47
2019-02-02T20:48:53.809Z,95931.23
2019-02-02T20:52:01.704Z,95940.27
2019-02-02T20:55:12.476Z,95951.52
2019-02-02T20:58:19.407Z,95949.55
2019-02-02T21:01:26.459Z,95954.08
2019-02-02T21:04:33.491Z,95956.61
2019-02-02T21:07:40.612Z,95960.54
2019-02-02T21:10:47.507Z,95970.34
2019-02-02T21:13:58.451Z,95972.57
2019-02-02T21:17:05.410Z,95975.90
2019-02-02T21:20:21.800Z,95978.00
2019-02-02T21:23:29.114Z,95960.24
2019-02-02T21:26:36.126Z,95971.00
2019-02-02T21:29:45.125Z,95971.34
2019-02-02T21:32:52.167Z,95966.41
2019-02-02T21:36:03.975Z,95969.70
2019-02-02T21:39:10.027Z,95966.67
2019-02-02T21:42:19.971Z,95956.88
2019-02-02T21:45:26.942Z,95955.84
2019-02-02T21:48:37.368Z,95957.48
2019-02-02T21:51:44.417Z,95957.97
2019-02-02T21:54:51.502Z,95967.90
2019-02-02T21:57:58.626Z,95979.75
2019-02-02T22:01:07.141Z,95985.77
2019-02-02T22:04:14.208Z,96001.93
2019-02-02T22:07:21.113Z,96009.80
2019-02-02T22:10:28.244Z,96025.05
2019-02-02T22:13:35.685Z,96030.98
2019-02-02T22:16:42.713Z,96042.39
2019-02-02T22:19:51.431Z,96046.70
2019-02-02T22:22:58.894Z,96063.33
2019-02-02T22:26:06.150Z,96074.84
2019-02-02T22:29:13.209Z,96087.05
2019-02-02T22:32:21.118Z,96100.48
2019-02-02T22:35:28.221Z,96114.10
2019-02-02T22:38:35.686Z,96106.91
2019-02-02T22:41:42.698Z,96110.55
2019-02-02T22:44:50.890Z,96122.20
2019-02-02T22:48:00.989Z,96111.63
2019-02-02T22:51:08.411Z,96121.76
2019-02-02T22:54:16.154Z,96130.65
2019-02-02T22:57:23.213Z,96136.00
2019-02-02T23:01:05.993Z,96136.87
2019-02-02T23:04:42.430Z,96133.14
2019-02-02T23:08:51.434Z,96125.39
2019-02-02T23:12:39.106Z,96123.05
2019-02-02T23:16:32.317Z,96127.55
2019-02-02T23:19:39.359Z,96119.17
2019-02-02T23:22:46.379Z,96121.70
2019-02-02T23:25:54.472Z,96120.81
2019-02-02T23:29:01.482Z,96124.17
2019-02-02T23:32:09.571Z,96125.32
2019-02-02T23:35:16.583Z,96115.84
2019-02-02T23:38:23.543Z,96108.95
2019-02-02T23:41:30.646Z,96119.94
2019-02-02T23:44:37.576Z,96134.55
2019-02-02T23:47:44.823Z,96131.99
2019-02-02T23:50:51.917Z,96143.65
2019-02-02T23:53:59.061Z,96158.53
2019-02-02T23:57:06.360Z,96164.08
